Time;durP1;ratioP1;P1;durP2;ratioP2;P2;SDS_P1;SDS_P2;PMS_P1;PMS_P2;Temp;Humidity;BMP_temperature;BMP_pressure;BME280_temperature;BME280_humidity;BME280_pressure;Samples;Min_cycle;Max_cycle;Signal;HPM_P1;HPM_P2
2021/05/12 00:02:06;;;;;;;1.55;0.95;;;16.40;79.60;;;;;;4983954;28;95992;-45
2021/05/12 00:04:38;;;;;;;2.15;1.70;;;16.50;79.60;;;;;;4983707;28;96643;-43
2021/05/12 00:07:10;;;;;;;2.85;2.10;;;16.50;79.50;;;;;;4986705;28;95274;-42
2021/05/12 00:09:41;;;;;;;6.22;3.38;;;16.50;79.50;;;;;;4984895;28;101377;-42
2021/05/12 00:12:11;;;;;;;11.18;4.30;;;16.50;79.30;;;;;;4987148;28;98980;-44
2021/05/12 00:14:41;;;;;;;10.18;4.28;;;16.50;79.90;;;;;;4983818;28;97953;-44
2021/05/12 00:17:16;;;;;;;7.78;4.32;;;16.50;79.20;;;;;;4983854;28;99536;-43
2021/05/12 00:20:00;;;;;;;8.13;4.95;;;16.60;79.60;;;;;;4984799;28;95836;-42
2021/05/12 00:25:32;;;;;;;;;;;16.60;79.30;;;;;;4958684;28;95547;-43
2021/05/12 00:28:03;;;;;;;9.32;6.55;;;16.60;79.30;;;;;;4983957;28;95890;-44
2021/05/12 00:30:35;;;;;;;10.77;6.18;;;16.70;79.30;;;;;;4979032;28;96094;-43
2021/05/12 00:33:06;;;;;;;11.40;7.22;;;16.70;79.20;;;;;;4983050;28;95942;-42
2021/05/12 00:35:37;;;;;;;10.52;6.97;;;16.70;79.10;;;;;;4977896;28;102242;-42
2021/05/12 00:38:07;;;;;;;11.05;7.72;;;16.80;79.10;;;;;;4981246;28;95711;-42
2021/05/12 00:40:38;;;;;;;10.50;7.10;;;16.70;79.10;;;;;;4978929;28;95501;-44
2021/05/12 00:43:09;;;;;;;11.10;7.38;;;16.80;79.00;;;;;;4983438;28;95958;-47
2021/05/12 00:45:39;;;;;;;10.65;7.65;;;16.80;79.10;;;;;;4974893;28;96800;-42
2021/05/12 00:48:09;;;;;;;9.85;8.38;;;16.80;78.90;;;;;;4972951;28;95324;-43
2021/05/12 00:50:41;;;;;;;;;;;16.90;78.90;;;;;;4970610;28;95508;-43
2021/05/12 00:53:11;;;;;;;;;;;16.90;78.70;;;;;;4972690;28;98301;-42
2021/05/12 00:55:42;;;;;;;11.75;7.85;;;16.90;78.60;;;;;;4969151;28;95706;-43
2021/05/12 00:58:14;;;;;;;10.82;7.55;;;17.00;78.50;;;;;;4975680;28;95886;-44
2021/05/12 01:00:46;;;;;;;10.32;7.00;;;17.00;78.40;;;;;;4962173;28;95955;-40
2021/05/12 01:03:18;;;;;;;9.07;7.07;;;17.00;78.40;;;;;;4952646;28;95963;-42
2021/05/12 01:05:52;;;;;;;;;;;17.00;78.40;;;;;;4949893;28;97205;-46
2021/05/12 01:08:22;;;;;;;9.50;7.35;;;17.10;78.20;;;;;;4954983;28;95851;-42
2021/05/12 01:10:53;;;;;;;8.02;6.28;;;17.10;77.90;;;;;;4963916;28;96079;-41
2021/05/12 01:13:25;;;;;;;10.00;6.93;;;17.20;78.20;;;;;;4964314;28;96596;-42
2021/05/12 01:15:56;;;;;;;8.80;6.32;;;17.30;78.40;;;;;;4960239;28;95467;-42
2021/05/12 01:18:26;;;;;;;;;;;17.40;78.40;;;;;;4976242;28;96443;-41
2021/05/12 01:21:02;;;;;;;6.78;5.30;;;17.50;78.50;;;;;;4974452;28;95871;-42
2021/05/12 01:23:43;;;;;;;8.05;6.22;;;17.60;78.50;;;;;;4976561;28;95906;-43
2021/05/12 01:26:19;;;;;;;6.40;5.33;;;17.70;79.10;;;;;;4972786;28;96234;-42
2021/05/12 01:28:53;;;;;;;8.15;6.57;;;17.80;78.60;;;;;;4973188;28;95355;-42
2021/05/12 01:31:34;;;;;;;7.82;4.80;;;17.90;78.60;;;;;;4966314;28;95903;-42
2021/05/12 01:34:06;;;;;;;8.45;4.78;;;18.00;78.60;;;;;;4946262;28;98152;-42
2021/05/12 01:36:39;;;;;;;7.95;5.57;;;18.20;76.90;;;;;;4965010;28;96320;-41
2021/05/12 01:39:11;;;;;;;9.32;5.70;;;18.10;76.60;;;;;;4966460;28;96652;-42
2021/05/12 01:41:42;;;;;;;10.65;5.95;;;18.10;76.30;;;;;;4964130;28;95794;-43
2021/05/12 01:44:13;;;;;;;7.72;5.80;;;18.10;76.40;;;;;;4965568;28;96102;-43
2021/05/12 01:46:48;;;;;;;6.18;5.28;;;18.10;76.40;;;;;;4939531;28;95800;-41
2021/05/12 01:49:19;;;;;;;6.63;5.18;;;18.10;76.40;;;;;;4968135;28;95787;-42
2021/05/12 01:51:51;;;;;;;6.65;5.05;;;18.10;76.40;;;;;;4964403;28;96159;-42
2021/05/12 01:54:22;;;;;;;6.70;5.10;;;18.20;76.30;;;;;;4968051;28;96133;-42
2021/05/12 01:56:56;;;;;;;6.45;4.70;;;18.20;76.20;;;;;;4966061;28;95346;-41
2021/05/12 01:59:27;;;;;;;4.75;3.78;;;18.20;76.00;;;;;;4965889;28;95854;-48
2021/05/12 02:01:59;;;;;;;6.20;4.25;;;18.30;76.60;;;;;;4950809;28;96195;-48
2021/05/12 02:04:29;;;;;;;6.57;4.95;;;18.40;75.90;;;;;;4983523;28;95948;-48
2021/05/12 02:07:00;;;;;;;10.02;4.45;;;18.40;75.60;;;;;;4979134;28;95307;-41
2021/05/12 02:09:34;;;;;;;;;;;18.40;75.50;;;;;;4968530;28;96578;-41
2021/05/12 02:12:05;;;;;;;4.50;3.85;;;18.40;75.40;;;;;;4974150;28;96293;-41
2021/05/12 02:14:36;;;;;;;4.43;4.00;;;18.50;75.30;;;;;;4972188;28;95882;-41
2021/05/12 02:17:07;;;;;;;4.40;3.75;;;18.50;75.10;;;;;;4973119;28;95850;-42
2021/05/12 02:19:37;;;;;;;;;;;18.50;75.00;;;;;;4979574;28;95842;-43
2021/05/12 02:22:07;;;;;;;6.85;4.20;;;18.50;75.20;;;;;;5000286;28;97241;-42
2021/05/12 02:24:37;;;;;;;5.20;4.35;;;18.50;75.10;;;;;;4975519;28;96639;-41
2021/05/12 02:27:07;;;;;;;3.70;2.95;;;18.50;75.10;;;;;;4984710;28;96204;-42
2021/05/12 02:29:38;;;;;;;5.53;4.35;;;18.60;75.30;;;;;;4982419;28;96472;-43
2021/05/12 02:32:09;;;;;;;3.80;3.10;;;18.70;75.40;;;;;;4983290;28;95842;-42
2021/05/12 02:34:39;;;;;;;4.03;3.28;;;19.00;75.50;;;;;;4982428;28;96128;-43
2021/05/12 02:37:10;;;;;;;;;;;19.20;75.10;;;;;;4986046;28;96590;-43
2021/05/12 02:39:40;;;;;;;3.30;2.33;;;19.40;74.60;;;;;;4984920;28;95656;-42
2021/05/12 02:42:10;;;;;;;4.45;2.78;;;19.60;74.30;;;;;;4985692;28;96000;-43
2021/05/12 02:44:41;;;;;;;3.45;2.42;;;19.70;74.20;;;;;;4962564;28;96668;-42
2021/05/12 02:47:12;;;;;;;3.00;2.50;;;19.80;73.80;;;;;;4961852;28;96198;-42
2021/05/12 02:49:44;;;;;;;3.20;2.50;;;19.90;73.20;;;;;;4959892;28;95508;-42
2021/05/12 02:52:16;;;;;;;4.15;3.03;;;19.90;72.60;;;;;;4971751;28;95748;-43
2021/05/12 02:54:47;;;;;;;3.42;2.35;;;20.00;73.10;;;;;;4967735;28;95918;-42
2021/05/12 02:57:19;;;;;;;3.60;2.75;;;20.10;72.80;;;;;;4960756;28;96119;-42
2021/05/12 02:59:52;;;;;;;3.35;2.60;;;20.20;72.70;;;;;;4966894;28;95915;-42
2021/05/12 03:02:23;;;;;;;3.72;2.75;;;20.30;72.40;;;;;;4968408;28;96161;-42
2021/05/12 03:04:55;;;;;;;3.75;2.25;;;20.40;72.30;;;;;;4968486;28;96475;-44
2021/05/12 03:07:25;;;;;;;2.33;1.98;;;20.50;71.90;;;;;;4966873;28;96058;-43
2021/05/12 03:09:56;;;;;;;2.72;2.53;;;20.60;71.80;;;;;;4966087;28;98485;-42
2021/05/12 03:12:27;;;;;;;;;;;20.70;71.50;;;;;;4971784;28;95935;-42
2021/05/12 03:14:58;;;;;;;1.95;1.80;;;20.80;71.20;;;;;;4969043;28;96065;-43
2021/05/12 03:17:29;;;;;;;3.78;2.05;;;20.90;70.90;;;;;;4967198;28;96162;-41
2021/05/12 03:20:01;;;;;;;2.83;2.13;;;21.00;71.00;;;;;;4990802;28;96444;-44
2021/05/12 03:22:32;;;;;;;3.30;3.00;;;21.10;70.50;;;;;;4986764;28;95837;-41
2021/05/12 03:25:04;;;;;;;3.78;3.33;;;21.10;69.30;;;;;;4986627;28;96477;-41
2021/05/12 03:27:34;;;;;;;;;;;20.80;68.90;;;;;;4984487;28;96769;-42
2021/05/12 03:30:08;;;;;;;2.28;2.17;;;20.60;69.80;;;;;;4988037;28;95304;-42
2021/05/12 03:32:39;;;;;;;2.20;1.92;;;20.40;70.20;;;;;;4964397;28;96012;-42
2021/05/12 03:35:12;;;;;;;3.03;2.72;;;20.40;70.90;;;;;;4986754;28;97168;-41
2021/05/12 03:37:43;;;;;;;2.47;2.28;;;20.50;71.10;;;;;;4984089;28;96613;-41
2021/05/12 03:40:16;;;;;;;3.65;2.60;;;20.60;70.10;;;;;;4987585;28;95906;-41
2021/05/12 03:42:46;;;;;;;2.30;2.03;;;20.60;70.80;;;;;;4982368;28;95801;-41
2021/05/12 03:45:16;;;;;;;2.43;2.20;;;20.50;71.20;;;;;;4981719;28;96077;-42
2021/05/12 03:47:49;;;;;;;2.13;1.75;;;20.50;71.40;;;;;;4983405;28;96025;-40
2021/05/12 03:50:22;;;;;;;2.20;2.00;;;20.50;71.50;;;;;;4987298;28;95305;-41
2021/05/12 03:52:55;;;;;;;2.92;2.10;;;20.50;71.70;;;;;;4983741;28;95964;-41
2021/05/12 03:55:28;;;;;;;2.17;1.98;;;20.50;71.80;;;;;;4987796;28;95988;-41
2021/05/12 03:57:59;;;;;;;2.30;2.10;;;20.50;72.00;;;;;;4984926;28;95846;-41
2021/05/12 04:00:32;;;;;;;2.17;1.90;;;20.50;72.20;;;;;;4984247;28;95459;-41
2021/05/12 04:03:03;;;;;;;5.35;2.67;;;20.50;72.40;;;;;;4985386;28;96471;-42
2021/05/12 04:05:33;;;;;;;3.08;2.67;;;20.50;72.60;;;;;;4987295;28;96730;-40
2021/05/12 04:08:03;;;;;;;2.35;2.15;;;20.60;72.70;;;;;;4983524;28;95838;-41
2021/05/12 04:10:36;;;;;;;2.63;2.17;;;20.60;72.80;;;;;;4986500;28;95898;-40
2021/05/12 04:13:07;;;;;;;3.15;1.98;;;20.70;72.90;;;;;;4966666;28;95834;-39
2021/05/12 04:15:39;;;;;;;2.30;2.00;;;20.70;73.00;;;;;;4983154;28;95880;-41
2021/05/12 04:18:11;;;;;;;3.15;2.95;;;20.70;73.10;;;;;;4965360;28;95832;-42
2021/05/12 04:20:42;;;;;;;3.63;2.30;;;20.80;73.10;;;;;;4986108;28;95770;-42
2021/05/12 04:23:13;;;;;;;4.95;3.55;;;20.80;73.00;;;;;;4982183;28;95825;-42
2021/05/12 04:25:43;;;;;;;;;;;20.80;73.10;;;;;;4985292;28;96558;-42
2021/05/12 04:28:14;;;;;;;2.70;1.65;;;20.80;73.30;;;;;;4983763;28;96057;-42
2021/05/12 04:30:45;;;;;;;1.77;1.60;;;21.00;73.10;;;;;;4982204;28;96509;-42
2021/05/12 04:33:15;;;;;;;2.10;1.90;;;21.20;72.30;;;;;;4964392;28;95962;-40
2021/05/12 04:35:46;;;;;;;;;;;21.30;71.90;;;;;;4986832;28;95906;-40
2021/05/12 04:38:16;;;;;;;2.65;1.80;;;21.30;72.30;;;;;;4984734;28;95872;-40
2021/05/12 04:40:47;;;;;;;2.63;1.77;;;21.20;72.60;;;;;;4985558;28;95855;-43
2021/05/12 04:43:18;;;;;;;4.40;2.45;;;21.20;72.60;;;;;;4984542;28;95928;-41
2021/05/12 04:45:48;;;;;;;2.65;2.13;;;21.20;72.60;;;;;;4962576;28;97234;-40
2021/05/12 04:48:19;;;;;;;3.08;2.05;;;21.10;72.90;;;;;;4986961;28;95774;-40
2021/05/12 04:50:52;;;;;;;5.30;2.47;;;21.20;73.00;;;;;;4984928;28;95848;-41
2021/05/12 04:53:25;;;;;;;3.25;1.90;;;21.20;73.10;;;;;;4986991;28;95746;-40
2021/05/12 04:55:57;;;;;;;8.18;3.33;;;21.20;73.10;;;;;;4983447;28;96994;-40
2021/05/12 04:58:31;;;;;;;2.25;1.95;;;21.20;73.20;;;;;;4969531;28;95249;-41
2021/05/12 05:01:02;;;;;;;4.10;2.28;;;21.20;72.40;;;;;;4960243;28;95924;-41
2021/05/12 05:03:40;;;;;;;3.95;2.08;;;21.10;73.20;;;;;;4986981;28;96017;-42
2021/05/12 05:06:11;;;;;;;2.47;1.90;;;21.10;73.00;;;;;;4963806;28;96837;-42
2021/05/12 05:08:41;;;;;;;2.75;1.67;;;21.20;73.10;;;;;;4983681;28;96436;-42
2021/05/12 05:11:15;;;;;;;3.85;2.20;;;21.20;73.00;;;;;;4983040;28;95843;-48
2021/05/12 05:13:48;;;;;;;1.75;1.63;;;21.20;72.90;;;;;;4986124;28;95892;-48
2021/05/12 05:16:18;;;;;;;;;;;21.20;73.10;;;;;;4977853;28;96462;-47
2021/05/12 05:18:49;;;;;;;2.10;1.20;;;21.20;72.90;;;;;;4984355;28;96312;-47
2021/05/12 05:21:20;;;;;;;3.30;1.60;;;21.20;72.40;;;;;;4962562;28;96077;-47
2021/05/12 05:23:51;;;;;;;3.00;1.80;;;21.10;72.70;;;;;;4986093;28;95855;-48
2021/05/12 05:26:22;;;;;;;4.35;1.60;;;21.10;72.20;;;;;;4982626;28;96419;-48
2021/05/12 05:28:54;;;;;;;1.98;1.60;;;21.10;72.30;;;;;;4984928;28;97559;-48
2021/05/12 05:31:25;;;;;;;1.65;1.20;;;21.10;72.40;;;;;;4972022;28;96782;-48
2021/05/12 05:34:15;;;;;;;2.47;1.55;;;21.10;72.50;;;;;;4963146;28;96353;-49
2021/05/12 05:37:03;;;;;;;1.88;1.20;;;21.10;72.50;;;;;;4962660;28;96202;-48
2021/05/12 05:39:53;;;;;;;3.15;1.30;;;21.10;72.60;;;;;;4963873;28;96442;-48
2021/05/12 05:42:42;;;;;;;2.08;1.25;;;21.00;73.80;;;;;;4964930;28;95766;-48
2021/05/12 05:45:31;;;;;;;1.92;1.60;;;21.00;73.20;;;;;;4961122;28;95797;-48
2021/05/12 05:48:20;;;;;;;1.35;1.23;;;21.00;73.30;;;;;;4962167;28;95782;-41
2021/05/12 05:51:10;;;;;;;1.50;1.38;;;21.00;73.30;;;;;;4952855;28;95807;-42
2021/05/12 05:54:00;;;;;;;2.20;1.63;;;20.90;73.40;;;;;;4960116;28;96098;-41
2021/05/12 05:56:52;;;;;;;2.05;1.48;;;20.90;73.50;;;;;;4961039;28;95886;-41
2021/05/12 05:59:44;;;;;;;1.20;1.10;;;20.90;73.50;;;;;;4962964;28;96391;-42
2021/05/12 06:02:37;;;;;;;2.88;1.38;;;20.90;73.70;;;;;;4976758;28;96529;-41
2021/05/12 06:05:36;;;;;;;2.03;1.20;;;20.90;73.70;;;;;;4953051;28;95927;-43
2021/05/12 06:08:25;;;;;;;2.47;0.95;;;20.90;73.80;;;;;;4979906;28;96610;-41
2021/05/12 06:11:21;;;;;;;2.25;1.27;;;20.90;73.90;;;;;;4949966;28;95799;-42
2021/05/12 06:14:09;;;;;;;1.48;1.13;;;20.80;73.70;;;;;;4980903;28;96753;-41
2021/05/12 06:17:00;;;;;;;1.42;1.33;;;20.80;73.90;;;;;;4979688;28;96910;-41
2021/05/12 06:19:50;;;;;;;1.23;0.93;;;20.80;74.00;;;;;;4979562;28;95886;-41
2021/05/12 06:22:40;;;;;;;1.42;1.00;;;20.80;74.00;;;;;;4977564;28;96415;-41
2021/05/12 06:25:32;;;;;;;1.23;1.05;;;20.80;74.10;;;;;;4973117;28;95593;-42
2021/05/12 06:28:22;;;;;;;0.85;0.82;;;20.70;74.10;;;;;;4975326;28;101317;-41
2021/05/12 06:31:12;;;;;;;2.08;1.13;;;20.70;74.10;;;;;;4970334;28;96067;-41
2021/05/12 06:34:02;;;;;;;1.85;1.20;;;20.70;74.20;;;;;;4960116;28;95565;-41
2021/05/12 06:36:52;;;;;;;1.85;0.90;;;20.70;74.20;;;;;;4960952;28;95789;-44
2021/05/12 06:39:40;;;;;;;1.58;1.13;;;20.70;74.40;;;;;;4962491;28;95750;-41
2021/05/12 06:42:10;;;;;;;1.10;1.00;;;20.70;74.40;;;;;;4964612;28;95453;-43
2021/05/12 06:44:40;;;;;;;1.15;1.05;;;20.60;74.50;;;;;;4945957;28;95971;-41
2021/05/12 06:47:10;;;;;;;3.88;1.55;;;20.60;74.50;;;;;;4958298;28;96233;-41
2021/05/12 06:49:43;;;;;;;1.60;1.20;;;20.60;74.60;;;;;;4982346;28;95859;-41
2021/05/12 06:52:14;;;;;;;2.38;1.35;;;20.60;74.70;;;;;;4976746;28;96771;-41
2021/05/12 06:54:45;;;;;;;1.48;1.38;;;20.60;74.80;;;;;;4983320;28;96809;-41
2021/05/12 06:57:17;;;;;;;1.88;1.30;;;20.50;74.80;;;;;;4984169;28;96147;-41
2021/05/12 06:59:48;;;;;;;3.83;1.55;;;20.50;75.00;;;;;;4983614;28;95855;-42
2021/05/12 07:02:21;;;;;;;6.03;1.92;;;20.50;74.90;;;;;;4984049;28;95948;-41
2021/05/12 07:04:51;;;;;;;3.22;2.13;;;20.40;74.90;;;;;;4982263;28;96451;-42
2021/05/12 07:07:21;;;;;;;2.90;2.03;;;20.40;75.10;;;;;;4967880;28;96737;-42
2021/05/12 07:09:51;;;;;;;4.93;2.47;;;20.30;75.10;;;;;;4966783;28;95945;-40
2021/05/12 07:12:23;;;;;;;2.55;1.73;;;20.30;75.20;;;;;;4983756;28;96483;-40
2021/05/12 07:14:53;;;;;;;3.72;1.95;;;20.40;75.40;;;;;;4980255;28;96514;-40
2021/05/12 07:17:25;;;;;;;3.40;2.25;;;20.40;75.00;;;;;;4981028;28;96046;-40
2021/05/12 07:19:56;;;;;;;4.35;1.85;;;20.40;75.10;;;;;;4982734;28;95397;-39
2021/05/12 07:22:30;;;;;;;4.03;2.20;;;20.50;75.00;;;;;;4966774;28;97612;-40
2021/05/12 07:25:02;;;;;;;5.65;2.20;;;20.50;75.00;;;;;;4982099;28;96055;-39
2021/05/12 07:27:32;;;;;;;;;;;20.60;74.90;;;;;;4985320;28;95793;-47
2021/05/12 07:30:05;;;;;;;3.72;1.95;;;20.60;74.80;;;;;;4980960;28;95314;-47
2021/05/12 07:32:35;;;;;;;5.50;2.22;;;20.60;74.60;;;;;;4980857;28;96396;-45
2021/05/12 07:35:07;;;;;;;2.13;1.90;;;20.60;74.40;;;;;;4987202;28;96388;-46
2021/05/12 07:37:37;;;;;;;4.68;2.25;;;20.60;74.40;;;;;;4983358;28;96020;-45
2021/05/12 07:40:08;;;;;;;4.40;2.20;;;20.60;74.60;;;;;;4971984;28;96704;-47
2021/05/12 07:42:42;;;;;;;9.80;2.67;;;20.60;74.60;;;;;;4982579;28;101977;-47
2021/05/12 07:45:14;;;;;;;4.65;2.50;;;20.50;74.50;;;;;;4968577;28;96321;-44
2021/05/12 07:48:05;;;;;;;5.30;2.63;;;20.50;74.70;;;;;;4969485;28;103194;-46
2021/05/12 07:50:38;;;;;;;7.60;3.35;;;20.50;74.60;;;;;;4971787;28;98143;-47
2021/05/12 07:53:09;;;;;;;9.00;4.20;;;20.50;74.70;;;;;;4969278;28;96020;-46
2021/05/12 07:55:41;;;;;;;8.10;3.65;;;20.50;74.70;;;;;;4973537;28;96246;-47
2021/05/12 07:58:12;;;;;;;6.47;3.45;;;20.40;74.60;;;;;;4968454;28;96415;-48
2021/05/12 08:00:45;;;;;;;5.95;4.65;;;20.40;74.90;;;;;;4967691;28;96456;-48
2021/05/12 08:03:18;;;;;;;6.97;3.85;;;20.40;75.10;;;;;;4969370;28;98101;-48
2021/05/12 08:05:49;;;;;;;;;;;20.40;74.90;;;;;;4971371;28;95928;-48
2021/05/12 08:08:23;;;;;;;9.80;5.22;;;20.50;74.80;;;;;;4969114;28;95422;-47
2021/05/12 08:10:54;;;;;;;12.65;4.47;;;20.50;74.80;;;;;;4973465;28;96275;-47
2021/05/12 08:13:26;;;;;;;19.48;6.20;;;20.40;75.10;;;;;;4969528;28;96562;-47
2021/05/12 08:15:58;;;;;;;22.25;6.63;;;20.40;75.60;;;;;;4979810;28;97628;-48
2021/05/12 08:18:32;;;;;;;17.80;5.85;;;20.30;75.70;;;;;;4969802;28;96560;-41
2021/05/12 08:21:03;;;;;;;15.07;5.97;;;20.30;75.90;;;;;;4970733;28;95891;-41
2021/05/12 08:23:35;;;;;;;19.02;8.05;;;20.40;75.80;;;;;;4970945;28;96488;-48
2021/05/12 08:26:05;;;;;;;15.68;6.88;;;20.30;75.50;;;;;;4968221;28;96740;-47
2021/05/12 08:28:36;;;;;;;14.15;6.82;;;20.40;75.50;;;;;;4971517;28;96424;-47
2021/05/12 08:31:07;;;;;;;13.15;6.80;;;20.40;75.50;;;;;;4960267;28;98934;-39
2021/05/12 08:33:38;;;;;;;20.55;8.13;;;20.40;75.30;;;;;;4971342;28;95894;-42
2021/05/12 08:36:10;;;;;;;21.05;8.93;;;20.40;75.40;;;;;;4967260;28;96232;-41
2021/05/12 08:38:46;;;;;;;;;;;20.30;75.50;;;;;;4969665;28;96210;-41
2021/05/12 08:41:17;;;;;;;17.98;8.23;;;20.40;75.50;;;;;;4969346;28;96597;-41
2021/05/12 08:43:54;;;;;;;17.35;7.97;;;20.30;75.50;;;;;;4973915;28;95665;-40
2021/05/12 08:46:25;;;;;;;16.05;7.93;;;20.20;75.40;;;;;;4966063;28;96455;-48
2021/05/12 08:48:56;;;;;;;;;;;20.10;75.70;;;;;;4972309;28;95961;-47
2021/05/12 08:51:28;;;;;;;16.30;7.35;;;20.00;75.90;;;;;;4970840;28;95995;-47
2021/05/12 08:54:00;;;;;;;20.25;9.23;;;19.90;76.20;;;;;;4974081;28;95947;-48
2021/05/12 08:56:33;;;;;;;15.82;8.48;;;19.80;76.40;;;;;;4969532;28;96691;-46
2021/05/12 08:59:06;;;;;;;18.85;8.60;;;19.80;76.60;;;;;;4969791;28;95790;-47
2021/05/12 09:01:37;;;;;;;19.95;9.27;;;19.80;76.70;;;;;;4963016;28;95884;-47
2021/05/12 09:04:08;;;;;;;20.83;10.10;;;19.70;76.80;;;;;;4969746;28;95918;-48
2021/05/12 09:06:40;;;;;;;23.63;9.68;;;19.60;77.60;;;;;;4966780;28;96225;-48
2021/05/12 09:09:11;;;;;;;25.85;10.68;;;19.60;76.90;;;;;;4969339;28;95829;-47
2021/05/12 09:11:43;;;;;;;27.52;10.85;;;19.50;77.60;;;;;;4968196;28;95897;-48
2021/05/12 09:14:29;;;;;;;;;;;19.50;77.20;;;;;;4971930;28;95868;-48
2021/05/12 09:17:01;;;;;;;30.77;10.80;;;19.50;77.20;;;;;;4946551;28;98466;-48
2021/05/12 09:19:33;;;;;;;24.80;10.73;;;19.40;77.10;;;;;;4967757;28;95854;-48
2021/05/12 09:22:06;;;;;;;23.08;10.05;;;19.40;77.20;;;;;;4967490;28;95854;-48
2021/05/12 09:24:40;;;;;;;24.77;10.98;;;19.30;77.10;;;;;;4969144;28;96034;-48
2021/05/12 09:27:17;;;;;;;23.45;11.38;;;19.30;77.20;;;;;;4966334;28;95984;-48
2021/05/12 09:30:03;;;;;;;23.13;10.98;;;19.30;77.20;;;;;;4969052;28;95674;-47
2021/05/12 09:32:44;;;;;;;20.40;10.20;;;19.30;77.10;;;;;;4964188;28;95934;-48
2021/05/12 09:35:17;;;;;;;24.35;11.15;;;19.20;77.10;;;;;;4968995;28;95558;-48
2021/05/12 09:37:48;;;;;;;25.70;11.25;;;19.30;77.10;;;;;;4964853;28;96625;-47
2021/05/12 09:40:21;;;;;;;21.55;10.85;;;19.20;77.10;;;;;;4960963;28;97745;-48
2021/05/12 09:43:00;;;;;;;25.38;12.13;;;19.20;77.20;;;;;;4966922;28;96057;-48
2021/05/12 09:45:37;;;;;;;26.05;11.10;;;19.20;77.00;;;;;;4983399;28;96834;-48
2021/05/12 09:48:12;;;;;;;19.85;10.05;;;19.20;76.80;;;;;;4968013;28;95876;-48
2021/05/12 09:50:43;;;;;;;19.60;10.52;;;19.30;76.70;;;;;;4985810;28;95928;-48
2021/05/12 09:53:15;;;;;;;22.58;11.07;;;19.30;76.50;;;;;;4967233;28;95844;-49
2021/05/12 09:55:50;;;;;;;19.65;10.10;;;19.30;76.90;;;;;;4969405;28;96219;-48
2021/05/12 09:58:24;;;;;;;;;;;19.30;76.10;;;;;;4968178;28;96570;-48
2021/05/12 10:00:56;;;;;;;19.70;9.43;;;19.30;76.00;;;;;;4968094;28;95826;-48
2021/05/12 10:03:33;;;;;;;18.77;9.27;;;19.30;76.00;;;;;;4976317;28;96393;-48
2021/05/12 10:06:04;;;;;;;21.42;9.80;;;19.30;76.00;;;;;;4969635;28;96149;-48
2021/05/12 10:08:37;;;;;;;19.40;10.73;;;19.30;76.00;;;;;;4975475;28;98747;-48
2021/05/12 10:11:12;;;;;;;19.75;9.73;;;19.30;75.90;;;;;;4968923;28;96437;-47
2021/05/12 10:13:43;;;;;;;19.40;8.57;;;19.30;75.80;;;;;;4968747;28;96307;-50
2021/05/12 10:16:15;;;;;;;24.85;10.20;;;19.40;75.80;;;;;;4961364;28;95495;-48
2021/05/12 10:18:46;;;;;;;16.25;8.98;;;19.30;75.60;;;;;;4975210;28;97055;-48
2021/05/12 10:21:17;;;;;;;17.50;9.60;;;19.30;75.60;;;;;;4985360;28;97444;-48
2021/05/12 10:23:48;;;;;;;16.23;9.80;;;19.30;75.60;;;;;;4967021;28;95832;-48
2021/05/12 10:26:19;;;;;;;19.90;8.85;;;19.20;75.60;;;;;;4967926;28;96218;-48
2021/05/12 10:28:53;;;;;;;;;;;19.30;75.70;;;;;;4982551;28;96621;-48
2021/05/12 10:31:23;;;;;;;22.05;9.73;;;19.20;75.60;;;;;;4966098;28;96090;-48
2021/05/12 10:33:53;;;;;;;20.25;8.82;;;19.20;75.50;;;;;;4966847;28;96594;-48
2021/05/12 10:36:24;;;;;;;17.30;9.15;;;19.20;75.60;;;;;;4972194;28;95940;-48
2021/05/12 10:39:03;;;;;;;19.42;9.98;;;19.20;75.50;;;;;;4983057;28;95963;-46
2021/05/12 10:41:50;;;;;;;15.48;9.13;;;19.20;75.40;;;;;;4987222;28;95726;-45
2021/05/12 10:44:42;;;;;;;17.63;10.25;;;19.20;75.50;;;;;;4986399;28;95291;-45
2021/05/12 10:47:20;;;;;;;22.02;11.45;;;19.10;75.40;;;;;;4985191;28;95822;-45
2021/05/12 10:49:56;;;;;;;26.92;12.30;;;19.00;75.80;;;;;;4985383;28;95894;-44
2021/05/12 10:52:28;;;;;;;30.67;12.88;;;18.80;76.10;;;;;;4984827;28;96063;-46
2021/05/12 10:55:03;;;;;;;26.08;12.10;;;18.70;76.50;;;;;;4984001;28;95789;-39
2021/05/12 10:57:49;;;;;;;25.63;11.75;;;18.60;76.90;;;;;;4988678;28;95888;-41
2021/05/12 11:00:21;;;;;;;25.45;12.55;;;18.50;77.20;;;;;;4980648;28;95861;-40
2021/05/12 11:03:02;;;;;;;25.77;13.32;;;18.40;77.30;;;;;;4987239;28;96106;-40
2021/05/12 11:06:02;;;;;;;31.05;12.63;;;18.40;77.50;;;;;;4984010;28;96879;-40
2021/05/12 11:08:34;;;;;;;23.63;11.73;;;18.30;77.70;;;;;;4968212;28;97156;-39
2021/05/12 11:11:06;;;;;;;31.20;12.45;;;18.30;77.80;;;;;;4986648;28;96052;-40
2021/05/12 11:13:36;;;;;;;23.42;12.43;;;18.30;78.50;;;;;;4991834;28;96128;-40
2021/05/12 11:16:07;;;;;;;24.45;13.10;;;18.20;77.90;;;;;;4981510;28;95822;-40
2021/05/12 11:18:42;;;;;;;26.50;12.80;;;18.20;77.90;;;;;;4991034;28;95746;-40
2021/05/12 11:21:22;;;;;;;23.38;12.68;;;18.10;78.00;;;;;;4987507;28;96635;-40
2021/05/12 11:24:02;;;;;;;27.23;12.40;;;18.10;78.10;;;;;;4990003;28;95435;-40
2021/05/12 11:32:08;;;;;;;25.13;12.43;;;18.00;78.20;;;;;;4983570;28;101240;-40
2021/05/12 11:34:40;;;;;;;24.25;11.70;;;18.00;78.20;;;;;;4989957;28;95892;-40
2021/05/12 11:37:14;;;;;;;29.13;13.05;;;17.90;78.30;;;;;;4987891;28;95579;-40
2021/05/12 11:39:56;;;;;;;27.23;13.38;;;17.80;78.30;;;;;;4990391;28;95385;-40
2021/05/12 11:42:34;;;;;;;24.42;13.23;;;17.80;78.40;;;;;;4985932;28;97856;-39
2021/05/12 11:45:08;;;;;;;31.20;14.82;;;17.80;78.40;;;;;;4989681;28;95804;-39
2021/05/12 11:47:40;;;;;;;22.83;13.98;;;17.80;78.40;;;;;;4966924;28;96755;-41
2021/05/12 11:50:30;;;;;;;23.55;12.30;;;17.80;78.80;;;;;;4989172;28;95819;-43
2021/05/12 11:53:02;;;;;;;24.17;13.80;;;17.90;79.00;;;;;;4986006;28;96785;-42
2021/05/12 11:55:35;;;;;;;26.58;13.45;;;18.10;78.80;;;;;;4989445;28;95823;-43
2021/05/12 11:58:11;;;;;;;30.77;14.45;;;18.10;78.70;;;;;;4967921;28;95520;-42
2021/05/12 12:00:43;;;;;;;24.83;12.80;;;18.30;78.50;;;;;;4984570;28;95790;-40
2021/05/12 12:03:14;;;;;;;;;;;18.40;78.40;;;;;;4985344;28;96908;-41
2021/05/12 12:05:51;;;;;;;23.73;11.65;;;18.40;78.30;;;;;;4991740;28;96032;-41
2021/05/12 12:08:22;;;;;;;24.98;12.90;;;18.50;78.20;;;;;;4985661;28;96073;-43
2021/05/12 12:11:09;;;;;;;28.43;14.13;;;18.60;78.20;;;;;;4989666;28;95908;-41
2021/05/12 12:13:44;;;;;;;25.63;14.23;;;18.60;76.20;;;;;;4986881;28;97040;-41
2021/05/12 12:16:14;;;;;;;24.63;14.18;;;18.60;77.50;;;;;;4983597;28;95910;-42
2021/05/12 12:18:45;;;;;;;24.70;12.95;;;18.70;77.70;;;;;;4984430;28;95461;-42
2021/05/12 12:21:30;;;;;;;24.20;12.63;;;18.70;77.50;;;;;;4988154;28;95760;-41
2021/05/12 12:24:17;;;;;;;23.23;12.02;;;18.80;77.50;;;;;;4985717;28;96711;-42
2021/05/12 12:26:53;;;;;;;22.33;11.82;;;18.90;77.50;;;;;;4989151;28;95881;-41
2021/05/12 12:29:28;;;;;;;26.45;12.68;;;18.90;77.40;;;;;;4986493;28;101091;-43
2021/05/12 12:32:07;;;;;;;25.27;14.02;;;19.00;77.20;;;;;;4983835;28;95790;-42
2021/05/12 12:34:40;;;;;;;23.75;11.50;;;19.00;77.00;;;;;;4984502;28;96679;-41
2021/05/12 12:37:16;;;;;;;24.83;11.10;;;19.10;76.90;;;;;;4991152;28;95905;-42
2021/05/12 12:40:02;;;;;;;23.40;12.68;;;19.20;76.90;;;;;;4985592;28;95631;-41
2021/05/12 12:43:05;;;;;;;22.65;12.45;;;19.20;76.70;;;;;;4988405;28;95457;-39
2021/05/12 12:45:36;;;;;;;23.80;11.55;;;19.20;76.60;;;;;;4979610;28;96250;-42
2021/05/12 12:48:08;;;;;;;28.25;12.57;;;19.30;76.60;;;;;;4987459;28;95882;-42
2021/05/12 12:50:42;;;;;;;24.73;14.40;;;19.20;73.10;;;;;;4983589;28;101394;-44
2021/05/12 12:53:21;;;;;;;21.65;13.23;;;19.10;73.10;;;;;;4987005;28;95593;-44
2021/05/12 12:55:51;;;;;;;26.23;14.40;;;18.90;73.50;;;;;;4981357;28;96483;-43
2021/05/12 12:58:31;;;;;;;26.08;11.85;;;18.70;74.00;;;;;;4987833;28;95788;-43
2021/05/12 13:01:02;;;;;;;21.00;12.23;;;18.60;74.20;;;;;;4982214;28;97423;-44
2021/05/12 13:03:36;;;;;;;24.77;12.18;;;18.50;74.50;;;;;;4987534;28;95889;-45
2021/05/12 13:06:06;;;;;;;27.10;13.35;;;18.50;74.70;;;;;;4982115;28;96831;-43
2021/05/12 13:08:38;;;;;;;22.08;13.80;;;18.30;74.70;;;;;;4967824;28;95847;-44
2021/05/12 13:11:12;;;;;;;25.70;13.27;;;18.30;75.00;;;;;;4986839;28;95876;-44
2021/05/12 13:13:49;;;;;;;28.08;14.18;;;18.30;75.20;;;;;;4986724;28;97380;-44
2021/05/12 13:16:24;;;;;;;21.58;12.40;;;18.20;75.40;;;;;;4980790;28;95895;-41
2021/05/12 13:18:58;;;;;;;26.23;13.05;;;18.20;76.20;;;;;;4986554;28;96237;-44
2021/05/12 13:21:35;;;;;;;21.65;13.23;;;18.10;75.70;;;;;;4982994;28;95708;-43
2021/05/12 13:24:13;;;;;;;26.42;14.57;;;18.10;75.70;;;;;;4984951;28;95855;-43
2021/05/12 13:26:44;;;;;;;24.55;13.45;;;18.00;75.80;;;;;;4966378;28;96387;-43
2021/05/12 13:29:19;;;;;;;24.88;12.35;;;18.00;75.90;;;;;;4985168;28;96238;-43
2021/05/12 13:31:52;;;;;;;26.65;13.77;;;18.00;76.00;;;;;;4982676;28;95397;-43